sensor_id;sensor_type;location;lat;lon;timestamp;pressure;altitude;pressure_sealevel;temperature;humidity
71697;BME280;68167;59.120;37.898;2023-05-03T00:01:17;99581.28;;;8.99;52.01
71697;BME280;68167;59.120;37.898;2023-05-03T00:03:43;99582.41;;;9.03;52.71
71697;BME280;68167;59.120;37.898;2023-05-03T00:06:14;99575.50;;;9.02;52.34
71697;BME280;68167;59.120;37.898;2023-05-03T00:08:42;99584.00;;;9.04;52.42
71697;BME280;68167;59.120;37.898;2023-05-03T00:11:09;99524.22;;;8.70;52.77
71697;BME280;68167;59.120;37.898;2023-05-03T00:13:36;99540.28;;;8.85;51.92
71697;BME280;68167;59.120;37.898;2023-05-03T00:16:03;99464.38;;;8.30;51.95
71697;BME280;68167;59.120;37.898;2023-05-03T00:18:29;99508.63;;;8.78;51.96
71697;BME280;68167;59.120;37.898;2023-05-03T00:21:00;99508.63;;;8.78;52.54
71697;BME280;68167;59.120;37.898;2023-05-03T00:23:26;99549.56;;;9.14;52.13
71697;BME280;68167;59.120;37.898;2023-05-03T00:25:55;99500.50;;;8.90;51.73
71697;BME280;68167;59.120;37.898;2023-05-03T00:28:23;99508.56;;;9.00;51.62
71697;BME280;68167;59.120;37.898;2023-05-03T00:30:49;99528.06;;;9.16;51.86
71697;BME280;68167;59.120;37.898;2023-05-03T00:33:16;99556.34;;;9.32;51.45
71697;BME280;68167;59.120;37.898;2023-05-03T00:35:43;99524.69;;;9.25;51.17
71697;BME280;68167;59.120;37.898;2023-05-03T00:38:10;99551.06;;;9.37;51.07
71697;BME280;68167;59.120;37.898;2023-05-03T00:40:37;99546.84;;;9.41;51.39
71697;BME280;68167;59.120;37.898;2023-05-03T00:43:04;99503.38;;;9.20;51.47
71697;BME280;68167;59.120;37.898;2023-05-03T00:45:32;99542.09;;;9.43;51.35
71697;BME280;68167;59.120;37.898;2023-05-03T00:47:59;99541.56;;;9.46;50.92
71697;BME280;68167;59.120;37.898;2023-05-03T00:50:26;99507.09;;;9.19;51.13
71697;BME280;68167;59.120;37.898;2023-05-03T00:52:53;99497.81;;;9.22;51.92
71697;BME280;68167;59.120;37.898;2023-05-03T00:55:19;99514.09;;;9.31;51.38
71697;BME280;68167;59.120;37.898;2023-05-03T00:57:47;99555.47;;;9.58;51.60
71697;BME280;68167;59.120;37.898;2023-05-03T01:00:15;99549.88;;;9.55;51.41
71697;BME280;68167;59.120;37.898;2023-05-03T01:02:43;99553.38;;;9.61;51.43
71697;BME280;68167;59.120;37.898;2023-05-03T01:05:09;99509.94;;;9.45;51.32
71697;BME280;68167;59.120;37.898;2023-05-03T01:13:39;99531.88;;;9.67;51.43
71697;BME280;68167;59.120;37.898;2023-05-03T01:16:23;99524.72;;;9.68;51.68
71697;BME280;68167;59.120;37.898;2023-05-03T01:18:53;99487.09;;;9.44;51.33
71697;BME280;68167;59.120;37.898;2023-05-03T01:21:20;99492.41;;;9.44;51.69
71697;BME280;68167;59.120;37.898;2023-05-03T01:24:10;99510.34;;;9.64;51.13
71697;BME280;68167;59.120;37.898;2023-05-03T01:26:38;99451.44;;;9.35;51.66
71697;BME280;68167;59.120;37.898;2023-05-03T01:29:05;99519.94;;;9.70;51.42
71697;BME280;68167;59.120;37.898;2023-05-03T01:31:37;99485.53;;;9.48;51.56
71697;BME280;68167;59.120;37.898;2023-05-03T01:34:35;99524.22;;;9.81;51.10
71697;BME280;68167;59.120;37.898;2023-05-03T01:37:04;99481.34;;;9.62;51.05
71697;BME280;68167;59.120;37.898;2023-05-03T01:40:00;99496.06;;;9.75;51.26
71697;BME280;68167;59.120;37.898;2023-05-03T01:42:31;99459.00;;;9.53;50.77
71697;BME280;68167;59.120;37.898;2023-05-03T01:44:59;99519.75;;;9.86;50.07
71697;BME280;68167;59.120;37.898;2023-05-03T01:47:30;99456.88;;;9.55;50.77
71697;BME280;68167;59.120;37.898;2023-05-03T01:49:58;99494.19;;;9.80;50.46
71697;BME280;68167;59.120;37.898;2023-05-03T01:52:25;99458.50;;;9.61;50.12
71697;BME280;68167;59.120;37.898;2023-05-03T01:54:51;99490.47;;;9.81;50.72
71697;BME280;68167;59.120;37.898;2023-05-03T01:57:18;99444.66;;;9.59;50.33
71697;BME280;68167;59.120;37.898;2023-05-03T01:59:44;99492.91;;;9.88;50.25
71697;BME280;68167;59.120;37.898;2023-05-03T02:02:11;99446.28;;;9.60;50.62
71697;BME280;68167;59.120;37.898;2023-05-03T02:04:37;99461.16;;;9.61;49.77
71697;BME280;68167;59.120;37.898;2023-05-03T02:07:03;99499.28;;;9.87;50.17
71697;BME280;68167;59.120;37.898;2023-05-03T02:09:30;99502.47;;;9.89;50.41
71697;BME280;68167;59.120;37.898;2023-05-03T02:11:56;99495.28;;;9.84;50.06
71697;BME280;68167;59.120;37.898;2023-05-03T02:14:22;99478.25;;;9.80;50.53
71697;BME280;68167;59.120;37.898;2023-05-03T02:16:49;99484.41;;;9.91;50.32
71697;BME280;68167;59.120;37.898;2023-05-03T02:19:15;99456.16;;;9.70;51.04
71697;BME280;68167;59.120;37.898;2023-05-03T02:21:41;99407.66;;;9.42;50.32
71697;BME280;68167;59.120;37.898;2023-05-03T02:24:08;99451.63;;;9.70;50.73
71697;BME280;68167;59.120;37.898;2023-05-03T02:26:34;99499.34;;;10.02;50.15
71697;BME280;68167;59.120;37.898;2023-05-03T02:29:00;99444.72;;;9.69;50.41
71697;BME280;68167;59.120;37.898;2023-05-03T02:31:30;99477.50;;;9.95;49.93
71697;BME280;68167;59.120;37.898;2023-05-03T02:33:57;99502.56;;;10.09;50.73
71697;BME280;68167;59.120;37.898;2023-05-03T02:36:23;99456.19;;;9.80;50.84
71697;BME280;68167;59.120;37.898;2023-05-03T02:38:50;99360.03;;;9.31;50.45
71697;BME280;68167;59.120;37.898;2023-05-03T02:41:17;99467.94;;;9.99;50.20
71697;BME280;68167;59.120;37.898;2023-05-03T02:43:44;99465.28;;;9.94;50.85
71697;BME280;68167;59.120;37.898;2023-05-03T02:46:10;99453.53;;;9.85;51.27
71697;BME280;68167;59.120;37.898;2023-05-03T02:48:36;99487.13;;;10.06;50.78
71697;BME280;68167;59.120;37.898;2023-05-03T02:51:04;99486.31;;;10.01;50.89
71697;BME280;68167;59.120;37.898;2023-05-03T02:53:30;99489.50;;;10.03;50.99
71697;BME280;68167;59.120;37.898;2023-05-03T02:56:01;99502.03;;;10.07;51.29
71697;BME280;68167;59.120;37.898;2023-05-03T02:58:28;99457.50;;;9.77;51.35
71697;BME280;68167;59.120;37.898;2023-05-03T03:00:55;99487.91;;;10.02;51.56
71697;BME280;68167;59.120;37.898;2023-05-03T03:03:21;99454.06;;;9.82;51.34
71697;BME280;68167;59.120;37.898;2023-05-03T03:05:49;99455.41;;;9.84;51.93
71697;BME280;68167;59.120;37.898;2023-05-03T03:08:17;99492.44;;;10.06;51.48
71697;BME280;68167;59.120;37.898;2023-05-03T03:10:44;99470.34;;;10.01;52.27
71697;BME280;68167;59.120;37.898;2023-05-03T03:13:11;99440.47;;;9.78;51.97
71697;BME280;68167;59.120;37.898;2023-05-03T03:15:38;99489.53;;;10.08;52.04
71697;BME280;68167;59.120;37.898;2023-05-03T03:18:05;99488.44;;;10.04;52.59
71697;BME280;68167;59.120;37.898;2023-05-03T03:20:31;99490.03;;;10.05;52.89
71697;BME280;68167;59.120;37.898;2023-05-03T03:22:58;99496.16;;;10.05;52.47
71697;BME280;68167;59.120;37.898;2023-05-03T03:25:25;99492.72;;;10.05;52.53
71697;BME280;68167;59.120;37.898;2023-05-03T03:27:55;99500.69;;;10.05;53.31
71697;BME280;68167;59.120;37.898;2023-05-03T03:30:21;99486.06;;;10.07;53.03
71697;BME280;68167;59.120;37.898;2023-05-03T03:33:00;99444.47;;;9.81;53.17
71697;BME280;68167;59.120;37.898;2023-05-03T03:35:33;99447.69;;;9.83;53.63
71697;BME280;68167;59.120;37.898;2023-05-03T03:38:00;99475.09;;;9.94;53.99
71697;BME280;68167;59.120;37.898;2023-05-03T03:40:27;99450.59;;;9.81;53.19
71697;BME280;68167;59.120;37.898;2023-05-03T03:42:55;99493.25;;;10.07;54.36
71697;BME280;68167;59.120;37.898;2023-05-03T03:45:21;99475.94;;;9.99;53.95
71697;BME280;68167;59.120;37.898;2023-05-03T03:47:49;99474.84;;;9.95;53.91
71697;BME280;68167;59.120;37.898;2023-05-03T03:50:16;99488.19;;;10.05;54.61
71697;BME280;68167;59.120;37.898;2023-05-03T03:52:42;99490.03;;;10.05;54.81
71697;BME280;68167;59.120;37.898;2023-05-03T03:55:09;99497.78;;;10.11;55.35
71697;BME280;68167;59.120;37.898;2023-05-03T03:57:37;99438.38;;;9.80;55.05
71697;BME280;68167;59.120;37.898;2023-05-03T04:00:03;99481.31;;;10.14;54.67
71697;BME280;68167;59.120;37.898;2023-05-03T04:02:38;99470.91;;;10.08;54.63
71697;BME280;68167;59.120;37.898;2023-05-03T04:05:11;99495.75;;;10.29;54.58
71697;BME280;68167;59.120;37.898;2023-05-03T04:07:38;99442.94;;;9.95;55.09
71697;BME280;68167;59.120;37.898;2023-05-03T04:10:06;99481.09;;;10.21;55.36
71697;BME280;68167;59.120;37.898;2023-05-03T04:12:33;99460.00;;;10.09;54.79
71697;BME280;68167;59.120;37.898;2023-05-03T04:14:59;99499.50;;;10.38;54.11
71697;BME280;68167;59.120;37.898;2023-05-03T04:17:26;99489.66;;;10.33;54.70
71697;BME280;68167;59.120;37.898;2023-05-03T04:19:54;99441.94;;;10.11;54.93
71697;BME280;68167;59.120;37.898;2023-05-03T04:22:21;99457.97;;;10.27;54.22
71697;BME280;68167;59.120;37.898;2023-05-03T04:24:48;99463.84;;;10.34;53.69
71697;BME280;68167;59.120;37.898;2023-05-03T04:27:15;99502.47;;;10.67;53.48
71697;BME280;68167;59.120;37.898;2023-05-03T04:29:43;99479.81;;;10.54;53.34
71697;BME280;68167;59.120;37.898;2023-05-03T04:32:10;99489.72;;;10.74;52.42
71697;BME280;68167;59.120;37.898;2023-05-03T04:34:41;99461.22;;;10.64;51.98
71697;BME280;68167;59.120;37.898;2023-05-03T04:37:07;99479.06;;;10.79;51.75
71697;BME280;68167;59.120;37.898;2023-05-03T04:39:35;99450.84;;;10.68;51.32
71697;BME280;68167;59.120;37.898;2023-05-03T04:42:02;99501.19;;;11.00;50.75
71697;BME280;68167;59.120;37.898;2023-05-03T04:44:30;99432.19;;;10.52;50.18
71697;BME280;68167;59.120;37.898;2023-05-03T04:46:57;99463.09;;;10.74;50.28
71697;BME280;68167;59.120;37.898;2023-05-03T04:49:26;99505.97;;;11.03;50.27
71697;BME280;68167;59.120;37.898;2023-05-03T04:51:53;99445.78;;;10.61;50.16
71697;BME280;68167;59.120;37.898;2023-05-03T04:54:20;99465.50;;;10.80;49.68
71697;BME280;68167;59.120;37.898;2023-05-03T04:56:48;99478.00;;;10.85;49.67
71697;BME280;68167;59.120;37.898;2023-05-03T04:59:17;99516.88;;;11.16;49.73
71697;BME280;68167;59.120;37.898;2023-05-03T05:01:45;99514.47;;;11.15;49.70
71697;BME280;68167;59.120;37.898;2023-05-03T05:04:12;99478.53;;;10.92;49.18
71697;BME280;68167;59.120;37.898;2023-05-03T05:06:44;99521.66;;;11.19;49.77
71697;BME280;68167;59.120;37.898;2023-05-03T05:09:23;99515.53;;;11.19;49.49
71697;BME280;68167;59.120;37.898;2023-05-03T05:11:52;99536.31;;;11.32;49.52
71697;BME280;68167;59.120;37.898;2023-05-03T05:14:20;99558.72;;;11.41;49.78
71697;BME280;68167;59.120;37.898;2023-05-03T05:16:48;99532.06;;;11.21;50.58
71697;BME280;68167;59.120;37.898;2023-05-03T05:19:14;99552.56;;;11.10;51.94
71697;BME280;68167;59.120;37.898;2023-05-03T05:21:42;99540.81;;;10.76;53.03
71697;BME280;68167;59.120;37.898;2023-05-03T05:24:08;99603.69;;;10.82;53.46
71697;BME280;68167;59.120;37.898;2023-05-03T05:26:35;99580.41;;;10.52;53.53
71697;BME280;68167;59.120;37.898;2023-05-03T05:29:02;99599.56;;;10.39;53.63
71697;BME280;68167;59.120;37.898;2023-05-03T05:31:29;99607.56;;;10.02;54.58
71697;BME280;68167;59.120;37.898;2023-05-03T05:33:55;99543.91;;;9.75;54.73
71697;BME280;68167;59.120;37.898;2023-05-03T05:36:22;99544.63;;;9.65;54.79
71697;BME280;68167;59.120;37.898;2023-05-03T05:38:50;99582.97;;;9.74;54.66
71697;BME280;68167;59.120;37.898;2023-05-03T05:41:16;99609.53;;;9.79;55.02
71697;BME280;68167;59.120;37.898;2023-05-03T05:43:44;99594.06;;;9.66;55.46
71697;BME280;68167;59.120;37.898;2023-05-03T05:46:11;99593.25;;;9.66;55.53
71697;BME280;68167;59.120;37.898;2023-05-03T05:48:40;99554.00;;;9.41;55.89
71697;BME280;68167;59.120;37.898;2023-05-03T05:51:07;99571.56;;;9.42;55.39
71697;BME280;68167;59.120;37.898;2023-05-03T05:53:34;99593.03;;;9.35;55.88
71697;BME280;68167;59.120;37.898;2023-05-03T05:56:01;99566.53;;;9.13;56.74
71697;BME280;68167;59.120;37.898;2023-05-03T05:58:31;99609.72;;;9.31;56.00
71697;BME280;68167;59.120;37.898;2023-05-03T06:00:58;99627.31;;;9.37;56.50
71697;BME280;68167;59.120;37.898;2023-05-03T06:03:28;99643.69;;;9.29;57.12
71697;BME280;68167;59.120;37.898;2023-05-03T06:05:54;99610.06;;;9.12;57.04
71697;BME280;68167;59.120;37.898;2023-05-03T06:08:21;99658.25;;;9.53;57.64
71697;BME280;68167;59.120;37.898;2023-05-03T06:10:47;99671.59;;;9.58;56.58
71697;BME280;68167;59.120;37.898;2023-05-03T06:13:14;99626.34;;;9.48;55.87
71697;BME280;68167;59.120;37.898;2023-05-03T06:15:41;99664.88;;;9.82;55.49
71697;BME280;68167;59.120;37.898;2023-05-03T06:18:07;99618.25;;;9.65;56.07
71697;BME280;68167;59.120;37.898;2023-05-03T06:20:34;99669.28;;;10.04;55.27
71697;BME280;68167;59.120;37.898;2023-05-03T06:23:01;99679.66;;;10.05;54.93
71697;BME280;68167;59.120;37.898;2023-05-03T06:25:27;99644.50;;;9.98;54.90
71697;BME280;68167;59.120;37.898;2023-05-03T06:27:53;99637.56;;;9.92;54.25
71697;BME280;68167;59.120;37.898;2023-05-03T06:30:23;99642.97;;;10.07;53.76
71697;BME280;68167;59.120;37.898;2023-05-03T06:32:51;99676.44;;;10.40;53.83
71697;BME280;68167;59.120;37.898;2023-05-03T06:35:18;99679.38;;;10.44;53.48
71697;BME280;68167;59.120;37.898;2023-05-03T06:37:47;99697.22;;;10.48;53.58
71697;BME280;68167;59.120;37.898;2023-05-03T06:40:13;99635.56;;;10.14;53.89
71697;BME280;68167;59.120;37.898;2023-05-03T06:42:41;99711.09;;;10.50;53.76
71697;BME280;68167;59.120;37.898;2023-05-03T06:45:11;99696.16;;;10.39;53.92
71697;BME280;68167;59.120;37.898;2023-05-03T06:47:37;99685.78;;;10.06;53.61
71697;BME280;68167;59.120;37.898;2023-05-03T06:50:07;99685.44;;;9.97;54.36
71697;BME280;68167;59.120;37.898;2023-05-03T06:52:34;99718.41;;;9.96;54.98
71697;BME280;68167;59.120;37.898;2023-05-03T06:55:00;99724.50;;;9.91;55.71
71697;BME280;68167;59.120;37.898;2023-05-03T06:57:29;99726.91;;;9.93;55.77
71697;BME280;68167;59.120;37.898;2023-05-03T06:59:55;99670.59;;;9.64;55.61
71697;BME280;68167;59.120;37.898;2023-05-03T07:02:22;99686.78;;;9.63;55.34
71697;BME280;68167;59.120;37.898;2023-05-03T07:04:48;99685.72;;;9.64;54.66
71697;BME280;68167;59.120;37.898;2023-05-03T07:07:15;99705.53;;;9.83;53.72
71697;BME280;68167;59.120;37.898;2023-05-03T07:09:42;99726.09;;;9.93;54.40
71697;BME280;68167;59.120;37.898;2023-05-03T07:12:08;99698.16;;;9.90;53.71
71697;BME280;68167;59.120;37.898;2023-05-03T07:14:35;99739.78;;;10.06;53.94
71697;BME280;68167;59.120;37.898;2023-05-03T07:17:01;99700.78;;;9.85;53.69
71697;BME280;68167;59.120;37.898;2023-05-03T07:19:28;99748.19;;;10.25;52.67
71697;BME280;68167;59.120;37.898;2023-05-03T07:21:55;99747.19;;;10.31;51.58
71697;BME280;68167;59.120;37.898;2023-05-03T07:24:21;99783.03;;;10.23;51.51
71697;BME280;68167;59.120;37.898;2023-05-03T07:26:49;99764.25;;;10.08;51.43
71697;BME280;68167;59.120;37.898;2023-05-03T07:29:16;99732.00;;;9.68;51.53
71697;BME280;68167;59.120;37.898;2023-05-03T07:31:42;99723.63;;;9.54;51.98
71697;BME280;68167;59.120;37.898;2023-05-03T07:34:10;99710.78;;;9.19;50.87
71697;BME280;68167;59.120;37.898;2023-05-03T07:36:37;99776.13;;;9.42;50.81
71697;BME280;68167;59.120;37.898;2023-05-03T07:39:04;99783.84;;;9.43;51.02
71697;BME280;68167;59.120;37.898;2023-05-03T07:41:30;99802.44;;;9.43;50.61
71697;BME280;68167;59.120;37.898;2023-05-03T07:43:56;99794.66;;;9.37;50.15
71697;BME280;68167;59.120;37.898;2023-05-03T07:46:23;99795.38;;;9.54;49.96
71697;BME280;68167;59.120;37.898;2023-05-03T07:48:49;99817.81;;;9.63;49.71
71697;BME280;68167;59.120;37.898;2023-05-03T07:51:15;99773.09;;;9.33;50.08
71697;BME280;68167;59.120;37.898;2023-05-03T07:53:42;99813.34;;;9.69;49.09
71697;BME280;68167;59.120;37.898;2023-05-03T07:56:13;99758.06;;;9.44;48.80
71697;BME280;68167;59.120;37.898;2023-05-03T07:58:39;99839.03;;;9.85;48.50
71697;BME280;68167;59.120;37.898;2023-05-03T08:01:06;99759.88;;;9.16;48.43
71697;BME280;68167;59.120;37.898;2023-05-03T08:03:32;99829.25;;;9.64;48.00
71697;BME280;68167;59.120;37.898;2023-05-03T08:05:59;99823.00;;;9.53;48.64
71697;BME280;68167;59.120;37.898;2023-05-03T08:08:25;99786.50;;;9.21;47.90
71697;BME280;68167;59.120;37.898;2023-05-03T08:10:52;99790.34;;;9.31;47.79
71697;BME280;68167;59.120;37.898;2023-05-03T08:13:19;99851.63;;;9.46;47.09
71697;BME280;68167;59.120;37.898;2023-05-03T08:15:48;99864.47;;;9.54;47.26
71697;BME280;68167;59.120;37.898;2023-05-03T08:18:15;99885.63;;;9.66;47.29
71697;BME280;68167;59.120;37.898;2023-05-03T08:20:43;99862.31;;;9.73;47.04
71697;BME280;68167;59.120;37.898;2023-05-03T08:23:10;99872.69;;;9.74;46.48
71697;BME280;68167;59.120;37.898;2023-05-03T08:25:36;99889.00;;;9.61;46.90
71697;BME280;68167;59.120;37.898;2023-05-03T08:28:02;99826.66;;;9.25;46.09
71697;BME280;68167;59.120;37.898;2023-05-03T08:30:29;99860.16;;;9.48;46.11
71697;BME280;68167;59.120;37.898;2023-05-03T08:32:56;99877.38;;;9.67;46.53
71697;BME280;68167;59.120;37.898;2023-05-03T08:35:22;99833.88;;;9.51;46.40
71697;BME280;68167;59.120;37.898;2023-05-03T08:37:49;99825.59;;;9.48;46.16
71697;BME280;68167;59.120;37.898;2023-05-03T08:40:15;99883.22;;;9.91;46.13
71697;BME280;68167;59.120;37.898;2023-05-03T08:42:43;99884.47;;;9.83;45.77
71697;BME280;68167;59.120;37.898;2023-05-03T08:45:14;99849.34;;;9.81;45.99
71697;BME280;68167;59.120;37.898;2023-05-03T08:47:42;99915.03;;;10.30;45.47
71697;BME280;68167;59.120;37.898;2023-05-03T08:50:11;99869.09;;;10.12;45.86
71697;BME280;68167;59.120;37.898;2023-05-03T08:52:41;99854.97;;;10.12;44.68
71697;BME280;68167;59.120;37.898;2023-05-03T08:55:09;99899.78;;;10.20;45.11
71697;BME280;68167;59.120;37.898;2023-05-03T08:57:36;99890.16;;;9.92;45.07
71697;BME280;68167;59.120;37.898;2023-05-03T09:00:04;99913.78;;;9.88;45.25
71697;BME280;68167;59.120;37.898;2023-05-03T09:02:34;99911.06;;;9.62;45.26
71697;BME280;68167;59.120;37.898;2023-05-03T09:05:02;99924.84;;;9.58;45.93
71697;BME280;68167;59.120;37.898;2023-05-03T09:07:32;99930.28;;;9.47;46.03
71697;BME280;68167;59.120;37.898;2023-05-03T09:09:58;99913.31;;;9.31;46.05
71697;BME280;68167;59.120;37.898;2023-05-03T09:12:37;99888.28;;;9.05;46.32
71697;BME280;68167;59.120;37.898;2023-05-03T09:15:07;99924.06;;;9.19;46.30
71697;BME280;68167;59.120;37.898;2023-05-03T09:17:33;99914.97;;;9.15;46.35
71697;BME280;68167;59.120;37.898;2023-05-03T09:20:00;99883.88;;;8.94;46.52
71697;BME280;68167;59.120;37.898;2023-05-03T09:22:30;99931.13;;;9.31;46.85
71697;BME280;68167;59.120;37.898;2023-05-03T09:24:59;99920.13;;;9.44;46.25
71697;BME280;68167;59.120;37.898;2023-05-03T09:27:26;99887.88;;;9.35;46.12
71697;BME280;68167;59.120;37.898;2023-05-03T09:29:53;99917.44;;;9.61;45.87
71697;BME280;68167;59.120;37.898;2023-05-03T09:32:21;99950.50;;;9.91;45.68
71697;BME280;68167;59.120;37.898;2023-05-03T09:34:48;99852.50;;;9.51;45.53
71697;BME280;68167;59.120;37.898;2023-05-03T09:37:14;99941.94;;;10.11;45.92
71697;BME280;68167;59.120;37.898;2023-05-03T09:39:45;99931.31;;;10.11;45.42
71697;BME280;68167;59.120;37.898;2023-05-03T09:42:14;99902.19;;;9.73;45.37
71697;BME280;68167;59.120;37.898;2023-05-03T09:44:47;99962.00;;;9.97;45.20
71697;BME280;68167;59.120;37.898;2023-05-03T09:47:16;99973.94;;;9.95;45.17
71697;BME280;68167;59.120;37.898;2023-05-03T09:49:47;99955.25;;;9.89;44.77
71697;BME280;68167;59.120;37.898;2023-05-03T09:52:13;99942.16;;;9.83;45.08
71697;BME280;68167;59.120;37.898;2023-05-03T09:54:41;99913.19;;;9.60;44.31
71697;BME280;68167;59.120;37.898;2023-05-03T09:57:07;99957.38;;;9.87;44.77
71697;BME280;68167;59.120;37.898;2023-05-03T09:59:36;99927.69;;;9.96;44.44
71697;BME280;68167;59.120;37.898;2023-05-03T10:02:05;99928.91;;;10.10;44.45
71697;BME280;68167;59.120;37.898;2023-05-03T10:04:43;99974.63;;;10.29;43.99
71697;BME280;68167;59.120;37.898;2023-05-03T10:07:13;99923.53;;;10.05;44.49
71697;BME280;68167;59.120;37.898;2023-05-03T10:09:44;99926.44;;;10.25;43.34
71697;BME280;68167;59.120;37.898;2023-05-03T10:12:11;99971.97;;;10.55;43.14
71697;BME280;68167;59.120;37.898;2023-05-03T10:14:45;99983.16;;;10.57;43.02
71697;BME280;68167;59.120;37.898;2023-05-03T10:17:19;99970.84;;;10.51;42.89
71697;BME280;68167;59.120;37.898;2023-05-03T10:19:59;100001.78;;;10.57;43.18
71697;BME280;68167;59.120;37.898;2023-05-03T10:25:31;99982.00;;;10.21;43.28
71697;BME280;68167;59.120;37.898;2023-05-03T10:28:08;99937.31;;;10.02;43.80
71697;BME280;68167;59.120;37.898;2023-05-03T10:30:39;100016.78;;;10.42;43.45
71697;BME280;68167;59.120;37.898;2023-05-03T10:35:38;100018.38;;;10.38;43.52
71697;BME280;68167;59.120;37.898;2023-05-03T10:38:34;100039.91;;;10.36;43.17
71697;BME280;68167;59.120;37.898;2023-05-03T10:41:03;100023.88;;;10.31;43.88
71697;BME280;68167;59.120;37.898;2023-05-03T10:46:04;99999.44;;;10.34;44.04
71697;BME280;68167;59.120;37.898;2023-05-03T10:48:33;100009.88;;;10.68;43.01
71697;BME280;68167;59.120;37.898;2023-05-03T10:53:53;100014.19;;;10.74;42.72
71697;BME280;68167;59.120;37.898;2023-05-03T10:56:19;100032.34;;;10.77;42.05
71697;BME280;68167;59.120;37.898;2023-05-03T10:58:48;100029.41;;;10.78;41.66
71697;BME280;68167;59.120;37.898;2023-05-03T11:01:22;100031.44;;;10.93;41.64
71697;BME280;68167;59.120;37.898;2023-05-03T11:06:33;100001.59;;;10.91;41.66
71697;BME280;68167;59.120;37.898;2023-05-03T11:09:02;100017.63;;;11.33;41.77
71697;BME280;68167;59.120;37.898;2023-05-03T11:11:29;99960.84;;;11.33;40.61
71697;BME280;68167;59.120;37.898;2023-05-03T11:13:56;100070.38;;;12.10;39.81
71697;BME280;68167;59.120;37.898;2023-05-03T11:16:23;100064.44;;;11.98;39.65
71697;BME280;68167;59.120;37.898;2023-05-03T11:18:50;100043.28;;;11.81;39.80
71697;BME280;68167;59.120;37.898;2023-05-03T11:21:17;100018.03;;;11.52;39.72
71697;BME280;68167;59.120;37.898;2023-05-03T11:23:44;100014.00;;;11.49;40.16
71697;BME280;68167;59.120;37.898;2023-05-03T11:26:11;100060.53;;;11.74;39.78
71697;BME280;68167;59.120;37.898;2023-05-03T11:28:39;100060.72;;;11.57;39.84
71697;BME280;68167;59.120;37.898;2023-05-03T11:31:05;100060.75;;;11.62;40.01
71697;BME280;68167;59.120;37.898;2023-05-03T11:33:33;100026.38;;;11.29;40.00
71697;BME280;68167;59.120;37.898;2023-05-03T11:36:00;100018.75;;;11.10;40.34
71697;BME280;68167;59.120;37.898;2023-05-03T11:38:30;99946.78;;;10.68;40.18
71697;BME280;68167;59.120;37.898;2023-05-03T11:40:58;100010.78;;;11.10;40.71
71697;BME280;68167;59.120;37.898;2023-05-03T11:43:25;100056.44;;;11.24;40.87
71697;BME280;68167;59.120;37.898;2023-05-03T11:45:55;100072.44;;;11.24;40.45
71697;BME280;68167;59.120;37.898;2023-05-03T11:48:23;100075.81;;;11.14;40.65
71697;BME280;68167;59.120;37.898;2023-05-03T11:50:54;100085.38;;;11.10;40.43
71697;BME280;68167;59.120;37.898;2023-05-03T11:53:25;100071.63;;;10.92;41.03
71697;BME280;68167;59.120;37.898;2023-05-03T11:55:53;100068.47;;;10.95;41.33
71697;BME280;68167;59.120;37.898;2023-05-03T11:58:24;100081.44;;;10.86;41.14
71697;BME280;68167;59.120;37.898;2023-05-03T12:00:55;100057.81;;;10.68;40.63
71697;BME280;68167;59.120;37.898;2023-05-03T12:03:24;100087.50;;;10.81;41.40
71697;BME280;68167;59.120;37.898;2023-05-03T12:05:51;100088.31;;;10.82;41.40
71697;BME280;68167;59.120;37.898;2023-05-03T12:08:31;100084.44;;;10.68;41.69
71697;BME280;68167;59.120;37.898;2023-05-03T12:10:59;100047.59;;;10.33;41.70
71697;BME280;68167;59.120;37.898;2023-05-03T12:13:34;100092.03;;;10.59;42.06
71697;BME280;68167;59.120;37.898;2023-05-03T12:16:02;100082.44;;;10.58;42.25
71697;BME280;68167;59.120;37.898;2023-05-03T12:18:51;100106.16;;;10.81;41.98
71697;BME280;68167;59.120;37.898;2023-05-03T12:21:19;100066.16;;;10.54;41.17
71697;BME280;68167;59.120;37.898;2023-05-03T12:23:47;100091.84;;;10.66;41.48
71697;BME280;68167;59.120;37.898;2023-05-03T12:26:17;100090.19;;;10.60;41.37
71697;BME280;68167;59.120;37.898;2023-05-03T12:28:48;100116.88;;;10.65;41.93
71697;BME280;68167;59.120;37.898;2023-05-03T12:31:15;100050.81;;;10.35;41.28
71697;BME280;68167;59.120;37.898;2023-05-03T12:33:43;100043.81;;;10.29;41.50
71697;BME280;68167;59.120;37.898;2023-05-03T12:36:09;100078.72;;;10.32;41.79
71697;BME280;68167;59.120;37.898;2023-05-03T12:38:36;100075.16;;;10.48;40.80
71697;BME280;68167;59.120;37.898;2023-05-03T12:41:02;100061.19;;;10.36;41.01
71697;BME280;68167;59.120;37.898;2023-05-03T12:43:28;100065.47;;;10.37;41.29
71697;BME280;68167;59.120;37.898;2023-05-03T12:45:55;100065.56;;;10.47;41.38
71697;BME280;68167;59.120;37.898;2023-05-03T12:48:24;100101.31;;;11.05;41.53
71697;BME280;68167;59.120;37.898;2023-05-03T12:50:50;100099.47;;;11.38;41.50
71697;BME280;68167;59.120;37.898;2023-05-03T12:53:19;100088.66;;;11.49;40.57
71697;BME280;68167;59.120;37.898;2023-05-03T12:55:47;100033.03;;;11.26;40.28
71697;BME280;68167;59.120;37.898;2023-05-03T12:58:13;100053.22;;;11.54;39.64
71697;BME280;68167;59.120;37.898;2023-05-03T13:00:40;100072.31;;;11.78;39.13
71697;BME280;68167;59.120;37.898;2023-05-03T13:03:07;100099.00;;;12.20;38.61
71697;BME280;68167;59.120;37.898;2023-05-03T13:05:34;100022.03;;;12.02;38.61
71697;BME280;68167;59.120;37.898;2023-05-03T13:08:01;100108.13;;;13.42;37.92
71697;BME280;68167;59.120;37.898;2023-05-03T13:10:28;100090.41;;;13.97;37.27
71697;BME280;68167;59.120;37.898;2023-05-03T13:12:55;100061.53;;;13.79;36.65
71697;BME280;68167;59.120;37.898;2023-05-03T13:15:22;100113.22;;;13.64;36.06
71697;BME280;68167;59.120;37.898;2023-05-03T13:17:52;100084.28;;;12.90;36.22